Private Wetterstation Wechselburg
Wetterdaten: Samstag, 11.02.2017
Datum Zeit Temp. +2m Bodentemp. Temp.+5cm Temp. Wind Windchill X Diff Temp. Feuchte +2m Feuchte +5cm Sonnenschein Luftdruck Regen Wind Richtung Richtung Sonnenschein Taupunkt Windchill Windben
11.02.2017 00:00 1,3 C 0,7 C 0,6 C 0,9 C 0,2 C 0,0 C 79 % 85 % 0 % 1024,5 hPa 0,0 l/m 4,0 km/h (1 Bft) O-NO 67 0 min -1,9 C 0,2 C 5,6 km/h (1 Bft)
11.02.2017 00:05 1,3 C 0,7 C 0,7 C 0,9 C 0,0 C 0,0 C 79 % 85 % 0 % 1024,5 hPa 0,0 l/m 4,3 km/h (1 Bft) O-NO 67 0 min -1,9 C 0,0 C 4,2 km/h (1 Bft)
11.02.2017 00:11 1,3 C 0,7 C 0,5 C 0,8 C -0,2 C 0,0 C 79 % 85 % 0 % 1024,5 hPa 0,0 l/m 4,3 km/h (1 Bft) N 0 0 min -1,9 C -0,2 C 4,3 km/h (1 Bft)
11.02.2017 00:25 1,2 C 0,7 C 0,3 C 0,9 C 0,3 C 0,0 C 79 % 85 % 0 % 1024,9 hPa 0,0 l/m 3,1 km/h (1 Bft) O 90 0 min -2,0 C 0,3 C 2,9 km/h (1 Bft)
11.02.2017 00:30 1,1 C 0,7 C 0,1 C 0,8 C 0,2 C 0,0 C 80 % 85 % 0 % 1024,9 hPa 0,0 l/m 2,9 km/h (1 Bft) O-NO 67 0 min -2,0 C 0,2 C 3,1 km/h (1 Bft)
11.02.2017 00:35 1,1 C 0,7 C -0,1 C 0,7 C -0,2 C 0,0 C 80 % 85 % 0 % 1024,9 hPa 0,0 l/m 3,1 km/h (1 Bft) O-NO 67 0 min -2,0 C -0,2 C 3,1 km/h (1 Bft)
11.02.2017 00:40 0,9 C 0,7 C -0,1 C 0,5 C -0,3 C 0,0 C 80 % 85 % 0 % 1024,9 hPa 0,0 l/m 3,1 km/h (1 Bft) O-NO 67 0 min -2,2 C -0,3 C 2,7 km/h (1 Bft)
11.02.2017 00:45 0,8 C 0,7 C -0,3 C 0,5 C -0,2 C 0,0 C 80 % 85 % 0 % 1024,9 hPa 0,0 l/m 2,7 km/h (1 Bft) O-NO 67 0 min -2,2 C -0,2 C 2,4 km/h (1 Bft)
11.02.2017 00:50 0,7 C 0,7 C -0,5 C 0,4 C -0,2 C 0,0 C 80 % 85 % 0 % 1024,9 hPa 0,0 l/m 2,4 km/h (1 Bft) O-NO 67 0 min -2,3 C -0,2 C 2,6 km/h (1 Bft)
11.02.2017 00:55 0,7 C 0,7 C -0,5 C 0,3 C -0,4 C 0,0 C 80 % 86 % 0 % 1024,9 hPa 0,0 l/m 2,6 km/h (1 Bft) O-NO 67 0 min -2,3 C -0,4 C 2,4 km/h (1 Bft)
11.02.2017 01:00 0,7 C 0,7 C -0,5 C 0,3 C -0,4 C 0,0 C 80 % 86 % 0 % 1024,3 hPa 0,0 l/m 2,6 km/h (1 Bft) O-NO 67 0 min -2,3 C -0,4 C 1,9 km/h (1 Bft)
11.02.2017 01:05 0,4 C 0,7 C -0,5 C 0,2 C -0,3 C 0,0 C 81 % 86 % 0 % 1024,3 hPa 0,0 l/m 1,6 km/h (1 Bft) O-NO 67 0 min -2,5 C -0,3 C 0,0 km/h (0 Bft)
11.02.2017 01:10 0,4 C 0,7 C -0,7 C 0,1 C -0,4 C 0,0 C 81 % 86 % 0 % 1024,3 hPa 0,0 l/m 0,8 km/h (0 Bft) O-NO 67 0 min -2,5 C -0,4 C 0,0 km/h (0 Bft)
11.02.2017 01:15 0,3 C 0,7 C -0,9 C 0,0 C -0,7 C 0,0 C 81 % 86 % 0 % 1024,3 hPa 0,0 l/m 0,0 km/h (0 Bft) O-NO 67 0 min -2,6 C -0,7 C 0,0 km/h (0 Bft)
11.02.2017 01:20 0,3 C 0,7 C -0,7 C -0,1 C -0,8 C 0,0 C 81 % 86 % 0 % 1024,3 hPa 0,0 l/m 0,5 km/h (0 Bft) O-NO 67 0 min -2,6 C -0,8 C 2,6 km/h (1 Bft)
11.02.2017 01:25 0,3 C 0,7 C -0,7 C -0,1 C -0,8 C 0,0 C 81 % 87 % 0 % 1024,3 hPa 0,0 l/m 1,8 km/h (1 Bft) O-NO 67 0 min -2,6 C -0,8 C 3,5 km/h (1 Bft)
11.02.2017 01:30 0,3 C 0,7 C -0,5 C -0,2 C -1,1 C 0,0 C 82 % 87 % 0 % 1024,3 hPa 0,0 l/m 2,7 km/h (1 Bft) O-NO 67 0 min -2,4 C -1,1 C 3,1 km/h (1 Bft)
11.02.2017 01:35 0,2 C 0,7 C -0,6 C -0,2 C -1,0 C 0,0 C 82 % 86 % 0 % 1024,3 hPa 0,0 l/m 2,6 km/h (1 Bft) O-NO 67 0 min -2,5 C -1,0 C 1,8 km/h (1 Bft)
11.02.2017 01:40 0,2 C 0,7 C -0,7 C -0,1 C -0,8 C 0,0 C 81 % 86 % 0 % 1024,2 hPa 0,0 l/m 2,1 km/h (1 Bft) O-NO 67 0 min -2,7 C -0,8 C 1,8 km/h (1 Bft)
11.02.2017 01:45 0,1 C 0,7 C -1,1 C -0,3 C -1,0 C 0,0 C 81 % 86 % 0 % 1024,2 hPa 0,0 l/m 1,0 km/h (0 Bft) O-NO 67 0 min -2,8 C -1,0 C 0,0 km/h (0 Bft)
11.02.2017 01:50 -0,1 C 0,7 C -1,3 C -0,4 C -1,1 C 0,0 C 81 % 86 % 0 % 1024,2 hPa 0,0 l/m 0,5 km/h (0 Bft) O-NO 67 0 min -3,0 C -1,1 C 0,0 km/h (0 Bft)
11.02.2017 01:55 -0,3 C 0,7 C -1,4 C -0,7 C -1,4 C 0,0 C 81 % 86 % 0 % 1024,2 hPa 0,0 l/m 0,0 km/h (0 Bft) O-NO 67 0 min -3,2 C -1,4 C 0,0 km/h (0 Bft)
11.02.2017 02:00 -0,3 C 0,7 C -1,5 C -0,7 C -1,5 C 0,0 C 81 % 87 % 0 % 1024,9 hPa 0,0 l/m 0,0 km/h (0 Bft) NO 45 0 min -3,2 C -1,5 C 0,0 km/h (0 Bft)
11.02.2017 02:05 -0,5 C 0,7 C -1,7 C -0,9 C -1,6 C 0,0 C 81 % 86 % 0 % 1024,9 hPa 0,0 l/m 0,0 km/h (0 Bft) O 90 0 min -3,3 C -1,6 C 0,0 km/h (0 Bft)
11.02.2017 02:11 -0,5 C 0,7 C -1,7 C -0,9 C -1,8 C 0,0 C 81 % 87 % 0 % 1024,9 hPa 0,0 l/m 0,0 km/h (0 Bft) N 0 0 min -3,3 C -1,8 C 0,0 km/h (0 Bft)
11.02.2017 02:24 -0,9 C 0,7 C -1,7 C -1,2 C -1,7 C 0,0 C 82 % 88 % 0 % 1024,6 hPa 0,0 l/m 0,0 km/h (0 Bft) O 90 0 min -3,6 C -1,7 C 0,0 km/h (0 Bft)
11.02.2017 02:30 -0,9 C 0,7 C -1,7 C -1,1 C -1,6 C 0,0 C 82 % 88 % 0 % 1024,6 hPa 0,0 l/m 0,0 km/h (0 Bft) O-NO 67 0 min -3,6 C -1,6 C 0,0 km/h (0 Bft)
11.02.2017 02:35 -0,9 C 0,7 C -1,5 C -1,1 C -1,5 C 0,0 C 83 % 88 % 0 % 1024,6 hPa 0,0 l/m 0,3 km/h (0 Bft) O-NO 67 0 min -3,4 C -1,5 C 0,0 km/h (0 Bft)
11.02.2017 02:40 -1,0 C 0,7 C -1,7 C -1,1 C -1,4 C 0,0 C 83 % 88 % 0 % 1024,4 hPa 0,0 l/m 0,3 km/h (0 Bft) O-NO 67 0 min -3,5 C -1,4 C 0,0 km/h (0 Bft)
11.02.2017 02:45 -0,9 C 0,7 C -1,7 C -1,1 C -1,4 C 0,0 C 83 % 88 % 0 % 1024,4 hPa 0,0 l/m 0,2 km/h (0 Bft) O 90 0 min -3,4 C -1,4 C 0,0 km/h (0 Bft)
11.02.2017 02:50 -1,1 C 0,7 C -1,7 C -1,2 C -1,3 C 0,0 C 83 % 88 % 0 % 1024,4 hPa 0,0 l/m 0,2 km/h (0 Bft) O-NO 67 0 min -3,6 C -1,3 C 0,0 km/h (0 Bft)
11.02.2017 02:55 -1,1 C 0,7 C -1,7 C -1,2 C -1,4 C 0,0 C 83 % 88 % 0 % 1024,4 hPa 0,0 l/m 0,0 km/h (0 Bft) O-NO 67 0 min -3,6 C -1,4 C 0,0 km/h (0 Bft)
11.02.2017 03:00 -1,1 C 0,7 C -1,7 C -1,2 C -1,5 C 0,0 C 83 % 88 % 0 % 1024,4 hPa 0,0 l/m 0,3 km/h (0 Bft) O-NO 67 0 min -3,6 C -1,5 C 2,4 km/h (1 Bft)
11.02.2017 03:05 -0,9 C 0,7 C -1,3 C -1,0 C -1,2 C 0,0 C 84 % 89 % 0 % 1024,4 hPa 0,0 l/m 1,3 km/h (1 Bft) O-NO 67 0 min -3,3 C -1,2 C 3,2 km/h (1 Bft)
11.02.2017 03:10 -0,8 C 0,7 C -1,3 C -0,8 C -0,9 C 0,0 C 84 % 89 % 0 % 1024,4 hPa 0,0 l/m 2,1 km/h (1 Bft) O-NO 67 0 min -3,2 C -0,9 C 2,7 km/h (1 Bft)
11.02.2017 03:15 -0,7 C 0,7 C -1,2 C -0,7 C -0,8 C 0,0 C 84 % 89 % 0 % 1024,4 hPa 0,0 l/m 1,8 km/h (1 Bft) O-NO 67 0 min -3,1 C -0,8 C 2,4 km/h (1 Bft)
11.02.2017 03:20 -0,6 C 0,7 C -1,1 C -0,6 C -0,7 C 0,0 C 84 % 89 % 0 % 1024,1 hPa 0,0 l/m 1,9 km/h (1 Bft) O-NO 67 0 min -3,0 C -0,7 C 2,1 km/h (1 Bft)
11.02.2017 03:25 -0,5 C 0,7 C -1,1 C -0,5 C -0,6 C 0,0 C 84 % 89 % 0 % 1024,1 hPa 0,0 l/m 1,6 km/h (1 Bft) NO 45 0 min -2,9 C -0,6 C 0,0 km/h (0 Bft)
11.02.2017 03:30 -0,6 C 0,7 C -1,2 C -0,6 C -0,6 C 0,0 C 84 % 88 % 0 % 1024,1 hPa 0,0 l/m 0,8 km/h (0 Bft) O-NO 67 0 min -3,0 C -0,6 C 0,0 km/h (0 Bft)
11.02.2017 03:35 -0,5 C 0,7 C -1,1 C -0,6 C -0,7 C 0,0 C 84 % 88 % 0 % 1024,1 hPa 0,0 l/m 0,6 km/h (0 Bft) O-NO 67 0 min -2,9 C -0,7 C 2,4 km/h (1 Bft)
11.02.2017 03:40 -0,5 C 0,7 C -1,2 C -0,5 C -0,6 C 0,0 C 84 % 88 % 0 % 1024,1 hPa 0,0 l/m 0,6 km/h (0 Bft) O-NO 67 0 min -2,9 C -0,6 C 0,0 km/h (0 Bft)
11.02.2017 03:45 -0,5 C 0,7 C -1,2 C -0,5 C -0,6 C 0,0 C 84 % 88 % 0 % 1024,1 hPa 0,0 l/m 0,3 km/h (0 Bft) O-NO 67 0 min -2,9 C -0,6 C 0,0 km/h (0 Bft)
11.02.2017 03:50 -0,5 C 0,7 C -1,3 C -0,5 C -0,6 C 0,0 C 84 % 88 % 0 % 1024,1 hPa 0,0 l/m 0,0 km/h (0 Bft) O-NO 67 0 min -2,9 C -0,6 C 0,0 km/h (0 Bft)
11.02.2017 03:55 -0,7 C 0,7 C -1,4 C -0,8 C -0,9 C 0,0 C 84 % 88 % 0 % 1024,1 hPa 0,0 l/m 0,0 km/h (0 Bft) O-SO 112 0 min -3,1 C -0,9 C 0,0 km/h (0 Bft)
11.02.2017 04:00 -0,7 C 0,7 C -1,5 C -0,9 C -1,3 C 0,0 C 84 % 88 % 0 % 1024,4 hPa 0,0 l/m 0,0 km/h (0 Bft) O-SO 112 0 min -3,1 C -1,3 C 0,0 km/h (0 Bft)
11.02.2017 04:05 -0,9 C 0,7 C -1,7 C -1,1 C -1,6 C 0,0 C 84 % 88 % 0 % 1024,4 hPa 0,0 l/m 0,0 km/h (0 Bft) O-SO 112 0 min -3,3 C -1,6 C 0,0 km/h (0 Bft)
11.02.2017 04:11 -0,9 C 0,8 C -1,9 C -1,2 C -1,8 C 0,0 C 84 % 88 % 0 % 1024,4 hPa 0,0 l/m 0,0 km/h (0 Bft) N 0 0 min -3,3 C -1,8 C 0,0 km/h (0 Bft)
11.02.2017 04:24 -1,3 C 0,8 C -2,1 C -1,6 C -2,2 C 0,0 C 83 % 89 % 0 % 1023,8 hPa 0,0 l/m 0,0 km/h (0 Bft) O-NO 67 0 min -3,8 C -2,2 C 0,0 km/h (0 Bft)
11.02.2017 04:30 -1,4 C 0,8 C -2,3 C -1,7 C -2,3 C 0,0 C 83 % 89 % 0 % 1023,8 hPa 0,0 l/m 0,0 km/h (0 Bft) O-NO 67 0 min -3,9 C -2,3 C 0,0 km/h (0 Bft)
11.02.2017 04:35 -1,5 C 0,9 C -2,5 C -1,8 C -2,3 C 0,0 C 84 % 89 % 0 % 1023,8 hPa 0,0 l/m 0,0 km/h (0 Bft) O-NO 67 0 min -3,8 C -2,3 C 0,0 km/h (0 Bft)
11.02.2017 04:40 -1,6 C 0,9 C -2,5 C -1,8 C -2,3 C 0,0 C 84 % 89 % 0 % 1023,8 hPa 0,0 l/m 0,0 km/h (0 Bft) O-NO 67 0 min -3,9 C -2,3 C 0,0 km/h (0 Bft)
11.02.2017 04:45 -1,7 C 0,9 C -2,6 C -1,9 C -2,3 C 0,0 C 84 % 89 % 0 % 1023,8 hPa 0,0 l/m 0,0 km/h (0 Bft) O-NO 67 0 min -4,0 C -2,3 C 0,0 km/h (0 Bft)
11.02.2017 04:50 -1,7 C 0,9 C -2,5 C -1,9 C -2,2 C 0,0 C 85 % 89 % 0 % 1023,8 hPa 0,0 l/m 0,0 km/h (0 Bft) O-NO 67 0 min -3,9 C -2,2 C 0,0 km/h (0 Bft)
11.02.2017 04:55 -1,7 C 0,9 C -2,5 C -1,8 C -2,0 C 0,0 C 85 % 89 % 0 % 1023,8 hPa 0,0 l/m 0,0 km/h (0 Bft) O-NO 67 0 min -3,9 C -2,0 C 0,0 km/h (0 Bft)
11.02.2017 05:00 -1,7 C 0,9 C -2,5 C -1,7 C -1,8 C 0,0 C 85 % 89 % 0 % 1024,1 hPa 0,0 l/m 0,2 km/h (0 Bft) NO 45 0 min -3,9 C -1,8 C 0,0 km/h (0 Bft)
11.02.2017 05:05 -1,6 C 0,9 C -2,1 C -1,5 C -1,5 C 0,1 C 85 % 90 % 0 % 1024,1 hPa 0,0 l/m 0,2 km/h (0 Bft) O-NO 67 0 min -3,8 C -1,5 C 0,0 km/h (0 Bft)
11.02.2017 05:10 -1,6 C 0,8 C -2,1 C -1,5 C -1,5 C 0,1 C 85 % 90 % 0 % 1024,1 hPa 0,0 l/m 0,0 km/h (0 Bft) O-NO 67 0 min -3,8 C -1,5 C 0,0 km/h (0 Bft)
11.02.2017 05:15 -1,5 C 0,8 C -2,0 C -1,3 C -1,3 C 0,2 C 85 % 89 % 0 % 1024,1 hPa 0,0 l/m 0,0 km/h (0 Bft) NO 45 0 min -3,7 C -1,3 C 0,0 km/h (0 Bft)
11.02.2017 05:20 -1,5 C 0,8 C -2,0 C -1,3 C -1,3 C 0,2 C 85 % 89 % 0 % 1024,1 hPa 0,0 l/m 0,0 km/h (0 Bft) O-NO 67 0 min -3,7 C -1,3 C 0,0 km/h (0 Bft)
11.02.2017 05:25 -1,3 C 0,8 C -1,7 C -1,2 C -1,2 C 0,1 C 85 % 90 % 0 % 1024,1 hPa 0,0 l/m 0,0 km/h (0 Bft) NO 45 0 min -3,5 C -1,2 C 0,0 km/h (0 Bft)
11.02.2017 05:30 -1,3 C 0,8 C -1,7 C -1,2 C -1,2 C 0,1 C 86 % 90 % 0 % 1024,1 hPa 0,0 l/m 0,0 km/h (0 Bft) NO 45 0 min -3,3 C -1,2 C 0,0 km/h (0 Bft)
11.02.2017 05:35 -1,3 C 0,8 C -1,7 C -1,2 C -1,2 C 0,1 C 85 % 90 % 0 % 1024,1 hPa 0,0 l/m 0,0 km/h (0 Bft) O-NO 67 0 min -3,5 C -1,2 C 0,0 km/h (0 Bft)
11.02.2017 05:40 -1,1 C 0,8 C -1,5 C -1,1 C -1,2 C 0,0 C 85 % 90 % 0 % 1024,1 hPa 0,0 l/m 0,0 km/h (0 Bft) O-NO 67 0 min -3,3 C -1,2 C 0,0 km/h (0 Bft)
11.02.2017 05:45 -1,1 C 0,7 C -1,1 C -1,0 C -1,0 C 0,1 C 86 % 90 % 0 % 1024,1 hPa 0,0 l/m 0,5 km/h (0 Bft) O-NO 67 0 min -3,1 C -1,0 C 2,4 km/h (1 Bft)
11.02.2017 05:50 -0,9 C 0,7 C -1,1 C -0,9 C -0,9 C 0,0 C 85 % 90 % 0 % 1024,1 hPa 0,0 l/m 1,3 km/h (1 Bft) NO 45 0 min -3,1 C -0,9 C 1,9 km/h (1 Bft)
11.02.2017 05:55 -0,9 C 0,7 C -0,9 C -0,8 C -0,8 C 0,1 C 85 % 90 % 0 % 1024,1 hPa 0,0 l/m 1,1 km/h (1 Bft) O-NO 67 0 min -3,1 C -0,8 C 0,0 km/h (0 Bft)
11.02.2017 06:00 -0,9 C 0,7 C -0,9 C -0,8 C -0,8 C 0,1 C 85 % 90 % 0 % 1023,9 hPa 0,0 l/m 0,5 km/h (0 Bft) O-NO 67 0 min -3,1 C -0,8 C 0,0 km/h (0 Bft)
11.02.2017 06:05 -0,9 C 0,7 C -0,9 C -0,8 C -0,8 C 0,1 C 85 % 89 % 0 % 1023,9 hPa 0,0 l/m 0,2 km/h (0 Bft) O-NO 67 0 min -3,1 C -0,8 C 0,0 km/h (0 Bft)
11.02.2017 06:11 -0,9 C 0,7 C -1,0 C -0,8 C -0,8 C 0,1 C 85 % 89 % 0 % 1023,9 hPa 0,0 l/m 0,0 km/h (0 Bft) N 0 0 min -3,1 C -0,8 C 0,0 km/h (0 Bft)
11.02.2017 06:24 -0,9 C 0,7 C -0,9 C -0,7 C -0,7 C 0,2 C 85 % 89 % 0 % 1023,3 hPa 0,0 l/m 0,0 km/h (0 Bft) O-NO 67 0 min -3,1 C -0,7 C 0,0 km/h (0 Bft)
11.02.2017 06:30 -0,8 C 0,7 C -0,8 C -0,7 C -0,7 C 0,1 C 85 % 89 % 0 % 1023,3 hPa 0,0 l/m 0,0 km/h (0 Bft) O-NO 67 0 min -3,0 C -0,7 C 0,0 km/h (0 Bft)
11.02.2017 06:35 -0,7 C 0,7 C -0,7 C -0,6 C -0,6 C 0,1 C 85 % 89 % 0 % 1023,3 hPa 0,0 l/m 0,0 km/h (0 Bft) O-NO 67 0 min -2,9 C -0,6 C 0,0 km/h (0 Bft)
11.02.2017 06:40 -0,7 C 0,7 C -0,7 C -0,5 C -0,5 C 0,2 C 85 % 89 % 0 % 1023,3 hPa 0,0 l/m 0,0 km/h (0 Bft) NO 45 0 min -2,9 C -0,5 C 0,0 km/h (0 Bft)
11.02.2017 06:45 -0,7 C 0,7 C -0,5 C -0,4 C -0,4 C 0,3 C 85 % 89 % 0 % 1023,3 hPa 0,0 l/m 0,2 km/h (0 Bft) O-NO 67 0 min -2,9 C -0,4 C 1,6 km/h (1 Bft)
11.02.2017 06:50 -0,5 C 0,7 C -0,5 C -0,4 C -0,4 C 0,1 C 85 % 89 % 0 % 1023,3 hPa 0,0 l/m 0,2 km/h (0 Bft) NO 45 0 min -2,7 C -0,4 C 0,0 km/h (0 Bft)
11.02.2017 06:55 -0,5 C 0,7 C -0,5 C -0,3 C -0,3 C 0,2 C 85 % 89 % 0 % 1023,3 hPa 0,0 l/m 0,3 km/h (0 Bft) NO 45 0 min -2,7 C -0,3 C 0,0 km/h (0 Bft)
11.02.2017 07:00 -0,5 C 0,7 C -0,5 C -0,2 C -0,2 C 0,3 C 85 % 89 % 0 % 1023,8 hPa 0,0 l/m 0,0 km/h (0 Bft) NO 45 0 min -2,7 C -0,2 C 0,0 km/h (0 Bft)
11.02.2017 07:05 -0,5 C 0,7 C -0,5 C -0,2 C -0,2 C 0,3 C 85 % 89 % 0 % 1023,8 hPa 0,0 l/m 0,0 km/h (0 Bft) N-NO 22 0 min -2,7 C -0,2 C 0,0 km/h (0 Bft)
11.02.2017 07:10 -0,5 C 0,7 C -0,5 C -0,2 C -0,2 C 0,3 C 85 % 89 % 0 % 1023,8 hPa 0,0 l/m 0,0 km/h (0 Bft) N-NO 22 0 min -2,7 C -0,2 C 0,0 km/h (0 Bft)
11.02.2017 07:15 -0,5 C 0,7 C -0,5 C -0,3 C -0,3 C 0,2 C 85 % 89 % 0 % 1023,8 hPa 0,0 l/m 0,0 km/h (0 Bft) O-SO 112 0 min -2,7 C -0,3 C 0,0 km/h (0 Bft)
11.02.2017 07:20 -0,5 C 0,7 C -0,5 C -0,3 C -0,3 C 0,2 C 85 % 89 % 0 % 1023,8 hPa 0,0 l/m 0,0 km/h (0 Bft) O-SO 112 0 min -2,7 C -0,3 C 0,0 km/h (0 Bft)
11.02.2017 07:25 -0,5 C 0,8 C -0,5 C -0,4 C -0,4 C 0,1 C 85 % 89 % 0 % 1023,8 hPa 0,0 l/m 0,0 km/h (0 Bft) O-SO 112 0 min -2,7 C -0,4 C 0,0 km/h (0 Bft)
11.02.2017 07:30 -0,5 C 0,8 C -0,5 C -0,4 C -0,4 C 0,1 C 85 % 89 % 0 % 1023,8 hPa 0,0 l/m 0,0 km/h (0 Bft) O-SO 112 0 min -2,7 C -0,4 C 0,0 km/h (0 Bft)
11.02.2017 07:35 -0,6 C 1,0 C -0,6 C -0,5 C -0,5 C 0,1 C 85 % 89 % 0 % 1023,8 hPa 0,0 l/m 0,0 km/h (0 Bft) O-SO 112 0 min -2,8 C -0,5 C 0,0 km/h (0 Bft)
11.02.2017 07:40 -0,6 C 1,0 C -0,5 C -0,5 C -0,5 C 0,1 C 85 % 89 % 0 % 1024,4 hPa 0,0 l/m 0,0 km/h (0 Bft) O-SO 112 0 min -2,8 C -0,5 C 0,0 km/h (0 Bft)
11.02.2017 07:45 -0,5 C 1,0 C -0,5 C -0,5 C -0,5 C 0,0 C 85 % 89 % 0 % 1024,4 hPa 0,0 l/m 0,0 km/h (0 Bft) O-SO 112 0 min -2,7 C -0,5 C 0,0 km/h (0 Bft)
11.02.2017 07:50 -0,5 C 1,1 C -0,5 C -0,5 C -0,5 C 0,0 C 85 % 89 % 0 % 1024,4 hPa 0,0 l/m 0,0 km/h (0 Bft) O-SO 112 0 min -2,7 C -0,5 C 0,0 km/h (0 Bft)
11.02.2017 07:55 -0,5 C 1,1 C -0,7 C -0,5 C -0,5 C 0,0 C 85 % 89 % 0 % 1024,4 hPa 0,0 l/m 0,0 km/h (0 Bft) O-SO 112 0 min -2,7 C -0,5 C 0,0 km/h (0 Bft)
11.02.2017 08:00 -0,5 C 1,1 C -0,5 C -0,5 C -0,5 C 0,0 C 85 % 89 % 0 % 1024,1 hPa 0,0 l/m 0,0 km/h (0 Bft) O-SO 112 0 min -2,7 C -0,5 C 0,0 km/h (0 Bft)
11.02.2017 08:05 -0,7 C 1,1 C -0,5 C -0,4 C -0,4 C 0,3 C 85 % 89 % 8 % 1024,1 hPa 0,0 l/m 0,0 km/h (0 Bft) O-SO 112 0 min -2,9 C -0,4 C 0,0 km/h (0 Bft)
11.02.2017 08:11 -0,7 C 1,1 C -0,7 C -0,5 C -0,5 C 0,2 C 85 % 89 % 5 % 1024,1 hPa 0,0 l/m 0,0 km/h (0 Bft) N 0 0 min -2,9 C -0,5 C 0,0 km/h (0 Bft)
11.02.2017 08:24 -0,7 C 1,1 C -0,5 C -0,4 C -0,4 C 0,3 C 85 % 90 % 8 % 1024,4 hPa 0,0 l/m 0,0 km/h (0 Bft) O-SO 112 0 min -2,9 C -0,4 C 0,0 km/h (0 Bft)
11.02.2017 08:30 -0,7 C 1,1 C -0,5 C -0,3 C -0,3 C 0,4 C 85 % 90 % 11 % 1024,4 hPa 0,0 l/m 0,0 km/h (0 Bft) O-SO 112 0 min -2,9 C -0,3 C 0,0 km/h (0 Bft)
11.02.2017 08:35 -0,7 C 1,2 C -0,5 C -0,2 C -0,2 C 0,5 C 86 % 90 % 13 % 1024,4 hPa 0,0 l/m 0,0 km/h (0 Bft) O-SO 112 0 min -2,7 C -0,2 C 0,0 km/h (0 Bft)
11.02.2017 08:40 -0,7 C 1,1 C -0,5 C 0,0 C 0,0 C 0,7 C 86 % 90 % 18 % 1024,4 hPa 0,0 l/m 0,0 km/h (0 Bft) O-SO 112 0 min -2,7 C 0,0 C 0,0 km/h (0 Bft)
11.02.2017 08:45 -0,7 C 1,2 C -0,5 C 0,1 C 0,1 C 0,8 C 86 % 90 % 21 % 1024,4 hPa 0,0 l/m 0,0 km/h (0 Bft) O-SO 112 0 min -2,7 C 0,1 C 0,0 km/h (0 Bft)
11.02.2017 08:50 -0,5 C 1,2 C -0,4 C 0,1 C 0,1 C 0,6 C 86 % 90 % 16 % 1024,4 hPa 0,0 l/m 0,0 km/h (0 Bft) O-SO 112 0 min -2,5 C 0,1 C 0,0 km/h (0 Bft)
11.02.2017 08:55 -0,5 C 1,2 C -0,3 C 0,1 C 0,1 C 0,6 C 86 % 90 % 16 % 1024,4 hPa 0,0 l/m 0,0 km/h (0 Bft) O-SO 112 0 min -2,5 C 0,1 C 0,0 km/h (0 Bft)
11.02.2017 09:00 -0,5 C 1,2 C -0,1 C 0,2 C 0,2 C 0,7 C 86 % 90 % 18 % 1024,4 hPa 0,0 l/m 0,0 km/h (0 Bft) O-SO 112 0 min -2,5 C 0,2 C 0,0 km/h (0 Bft)
11.02.2017 09:05 -0,6 C 1,2 C -0,1 C 0,3 C 0,3 C 0,9 C 86 % 90 % 24 % 1024,4 hPa 0,0 l/m 0,0 km/h (0 Bft) O-SO 112 0 min -2,6 C 0,3 C 0,0 km/h (0 Bft)
11.02.2017 09:10 -0,6 C 1,2 C -0,1 C 0,4 C 0,4 C 1,0 C 86 % 90 % 26 % 1024,4 hPa 0,0 l/m 0,0 km/h (0 Bft) O-NO 67 0 min -2,6 C 0,4 C 2,9 km/h (1 Bft)
11.02.2017 09:15 -0,5 C 1,2 C 0,0 C 0,5 C 0,5 C 1,0 C 86 % 90 % 26 % 1024,4 hPa 0,0 l/m 0,2 km/h (0 Bft) O-SO 112 0 min -2,5 C 0,5 C 0,0 km/h (0 Bft)
11.02.2017 09:20 -0,5 C 1,2 C 0,0 C 0,7 C 0,7 C 1,2 C 86 % 90 % 32 % 1024,4 hPa 0,0 l/m 0,2 km/h (0 Bft) O-NO 67 0 min -2,5 C 0,7 C 0,0 km/h (0 Bft)
11.02.2017 09:25 -0,5 C 1,2 C 0,3 C 0,8 C 0,8 C 1,3 C 86 % 90 % 34 % 1024,4 hPa 0,0 l/m 0,2 km/h (0 Bft) O-NO 67 0 min -2,5 C 0,8 C 1,6 km/h (1 Bft)
11.02.2017 09:30 -0,5 C 1,2 C 0,3 C 0,8 C 0,8 C 1,3 C 86 % 90 % 34 % 1024,4 hPa 0,0 l/m 0,6 km/h (0 Bft) O-NO 67 0 min -2,5 C 0,8 C 2,3 km/h (1 Bft)
11.02.2017 09:35 -0,5 C 1,2 C 0,5 C 1,0 C 1,0 C 1,5 C 86 % 90 % 39 % 1024,4 hPa 0,0 l/m 0,8 km/h (0 Bft) O-NO 67 0 min -2,5 C 1,0 C 0,0 km/h (0 Bft)
11.02.2017 09:40 -0,5 C 1,2 C 0,7 C 1,3 C 1,3 C 1,8 C 86 % 90 % 47 % 1024,4 hPa 0,0 l/m 0,8 km/h (0 Bft) NO 45 0 min -2,5 C 1,3 C 1,8 km/h (1 Bft)
11.02.2017 09:45 -0,5 C 1,2 C 0,7 C 1,5 C 1,5 C 2,0 C 86 % 90 % 53 % 1024,4 hPa 0,0 l/m 0,6 km/h (0 Bft) O-NO 67 0 min -2,5 C 1,5 C 2,4 km/h (1 Bft)
11.02.2017 09:50 -0,4 C 1,2 C 0,8 C 1,6 C 1,6 C 2,0 C 86 % 90 % 53 % 1024,4 hPa 0,0 l/m 1,0 km/h (0 Bft) O-NO 67 0 min -2,4 C 1,6 C 1,8 km/h (1 Bft)
11.02.2017 09:55 -0,4 C 1,2 C 0,8 C 1,7 C 1,7 C 2,1 C 86 % 90 % 55 % 1024,4 hPa 0,0 l/m 1,4 km/h (1 Bft) O 90 0 min -2,4 C 1,7 C 2,6 km/h (1 Bft)
11.02.2017 10:00 -0,4 C 1,2 C 0,8 C 1,7 C 1,7 C 2,1 C 86 % 90 % 55 % 1024,2 hPa 0,0 l/m 1,8 km/h (1 Bft) O-NO 67 0 min -2,4 C 1,7 C 3,7 km/h (1 Bft)
11.02.2017 10:05 -0,3 C 1,0 C 1,0 C 1,3 C 1,3 C 1,6 C 86 % 90 % 42 % 1024,2 hPa 0,0 l/m 3,2 km/h (1 Bft) O-NO 67 0 min -2,3 C 1,3 C 6,3 km/h (2 Bft)
11.02.2017 10:11 -0,3 C 1,0 C 1,1 C 0,9 C 0,9 C 1,2 C 86 % 90 % 32 % 1024,2 hPa 0,0 l/m 4,0 km/h (1 Bft) N 0 0 min -2,3 C 0,9 C 4,3 km/h (1 Bft)
11.02.2017 10:24 -0,1 C 1,0 C 1,6 C 2,9 C 2,9 C 3,0 C 87 % 90 % 79 % 1024,8 hPa 0,0 l/m 2,7 km/h (1 Bft) NO 45 0 min -2,0 C 2,9 C 7,1 km/h (2 Bft)
11.02.2017 10:30 0,1 C 1,0 C 1,6 C 2,7 C 2,7 C 2,6 C 87 % 90 % 68 % 1024,8 hPa 0,0 l/m 3,1 km/h (1 Bft) NO 45 0 min -1,8 C 2,7 C 3,4 km/h (1 Bft)
11.02.2017 10:35 0,1 C 1,0 C 1,6 C 2,6 C 2,6 C 2,5 C 86 % 90 % 66 % 1024,8 hPa 0,0 l/m 3,2 km/h (1 Bft) NO 45 0 min -2,0 C 2,6 C 6,4 km/h (2 Bft)
11.02.2017 10:40 0,1 C 1,0 C 1,6 C 2,2 C 2,2 C 2,1 C 86 % 90 % 55 % 1024,3 hPa 0,0 l/m 3,9 km/h (1 Bft) O-NO 67 0 min -2,0 C 2,2 C 5,5 km/h (1 Bft)
11.02.2017 10:45 0,2 C 1,0 C 1,7 C 1,9 C 1,9 C 1,7 C 86 % 90 % 45 % 1024,3 hPa 0,0 l/m 4,3 km/h (1 Bft) NO 45 0 min -1,9 C 1,9 C 6,3 km/h (2 Bft)
11.02.2017 10:50 0,3 C 1,0 C 1,6 C 2,1 C 2,1 C 1,8 C 86 % 90 % 47 % 1024,3 hPa 0,0 l/m 4,3 km/h (1 Bft) O-NO 67 0 min -1,8 C 2,1 C 5,8 km/h (2 Bft)
11.02.2017 10:55 0,3 C 1,0 C 1,7 C 2,0 C 2,0 C 1,7 C 86 % 90 % 45 % 1024,3 hPa 0,0 l/m 4,5 km/h (1 Bft) O-SO 112 0 min -1,8 C 2,0 C 4,2 km/h (1 Bft)
11.02.2017 11:00 0,3 C 1,0 C 1,9 C 2,3 C 2,3 C 2,0 C 86 % 90 % 53 % 1024,3 hPa 0,0 l/m 4,3 km/h (1 Bft) NO 45 0 min -1,8 C 2,3 C 3,4 km/h (1 Bft)
11.02.2017 11:05 0,5 C 1,0 C 2,1 C 3,2 C 3,2 C 2,7 C 86 % 90 % 71 % 1024,3 hPa 0,0 l/m 3,9 km/h (1 Bft) O-NO 67 0 min -1,6 C 3,2 C 3,9 km/h (1 Bft)
11.02.2017 11:10 0,5 C 1,0 C 2,3 C 3,8 C 3,8 C 3,3 C 86 % 89 % 87 % 1024,3 hPa 0,0 l/m 3,5 km/h (1 Bft) O 90 5 min -1,6 C 3,8 C 3,2 km/h (1 Bft)
11.02.2017 11:15 0,8 C 0,9 C 2,5 C 4,4 C 4,4 C 3,6 C 86 % 89 % 95 % 1024,3 hPa 0,0 l/m 3,4 km/h (1 Bft) O-NO 67 5 min -1,3 C 4,4 C 5,1 km/h (1 Bft)
11.02.2017 11:20 0,9 C 1,0 C 2,5 C 4,6 C 4,6 C 3,7 C 86 % 89 % 97 % 1024,4 hPa 0,0 l/m 3,2 km/h (1 Bft) O-NO 67 5 min -1,2 C 4,6 C 3,5 km/h (1 Bft)
11.02.2017 11:25 1,1 C 1,0 C 2,8 C 4,8 C 4,8 C 3,7 C 86 % 89 % 97 % 1024,4 hPa 0,0 l/m 3,4 km/h (1 Bft) O-NO 67 5 min -1,0 C 4,8 C 4,8 km/h (1 Bft)
11.02.2017 11:30 1,1 C 0,9 C 2,8 C 4,9 C 4,9 C 3,8 C 86 % 89 % 100 % 1024,4 hPa 0,0 l/m 3,2 km/h (1 Bft) O-NO 67 5 min -1,0 C 4,9 C 6,0 km/h (2 Bft)
11.02.2017 11:35 1,2 C 0,9 C 2,7 C 4,2 C 4,2 C 3,0 C 85 % 88 % 79 % 1024,4 hPa 0,0 l/m 4,0 km/h (1 Bft) O-SO 112 0 min -1,0 C 4,2 C 7,4 km/h (2 Bft)
11.02.2017 11:40 1,3 C 0,7 C 2,5 C 3,6 C 3,6 C 2,3 C 86 % 88 % 61 % 1024,4 hPa 0,0 l/m 4,8 km/h (1 Bft) O-NO 67 0 min -0,8 C 2,6 C 5,8 km/h (2 Bft)
11.02.2017 11:45 1,5 C 0,7 C 2,5 C 3,0 C 3,0 C 1,5 C 85 % 88 % 39 % 1024,4 hPa 0,0 l/m 5,1 km/h (1 Bft) O-NO 67 0 min -0,7 C 1,8 C 8,7 km/h (2 Bft)
11.02.2017 11:50 1,5 C 0,7 C 2,5 C 2,9 C 2,9 C 1,4 C 85 % 87 % 37 % 1024,4 hPa 0,0 l/m 5,0 km/h (1 Bft) O-SO 112 0 min -0,7 C 1,7 C 4,0 km/h (1 Bft)
11.02.2017 11:55 1,7 C 0,7 C 2,6 C 3,0 C 3,0 C 1,3 C 85 % 87 % 34 % 1024,4 hPa 0,0 l/m 4,8 km/h (1 Bft) O-NO 67 0 min -0,5 C 1,9 C 7,1 km/h (2 Bft)
11.02.2017 12:00 1,7 C 0,7 C 2,7 C 2,9 C 2,9 C 1,2 C 85 % 87 % 32 % 1024,4 hPa 0,0 l/m 5,0 km/h (1 Bft) O-SO 112 0 min -0,5 C 1,7 C 6,4 km/h (2 Bft)
11.02.2017 12:05 1,9 C 0,7 C 2,6 C 3,3 C 3,3 C 1,4 C 84 % 87 % 37 % 1024,4 hPa 0,0 l/m 4,5 km/h (1 Bft) O 90 0 min -0,5 C 3,3 C 5,8 km/h (2 Bft)
11.02.2017 12:11 1,9 C 0,7 C 2,8 C 3,3 C 3,3 C 1,4 C 84 % 87 % 37 % 1024,4 hPa 0,0 l/m 4,5 km/h (1 Bft) N 0 0 min -0,5 C 3,3 C 7,4 km/h (2 Bft)
11.02.2017 12:24 2,3 C 0,7 C 3,0 C 4,4 C 4,4 C 2,1 C 83 % 86 % 55 % 1024,1 hPa 0,0 l/m 3,7 km/h (1 Bft) O-NO 67 0 min -0,3 C 4,4 C 5,3 km/h (1 Bft)
11.02.2017 12:30 2,2 C 0,7 C 2,9 C 4,2 C 4,2 C 2,0 C 83 % 85 % 53 % 1024,1 hPa 0,0 l/m 3,9 km/h (1 Bft) O-NO 67 0 min -0,4 C 4,2 C 5,0 km/h (1 Bft)
11.02.2017 12:35 2,2 C 0,6 C 2,8 C 3,8 C 3,8 C 1,6 C 82 % 85 % 42 % 1024,1 hPa 0,0 l/m 3,4 km/h (1 Bft) O-SO 112 0 min -0,5 C 3,8 C 4,5 km/h (1 Bft)
11.02.2017 12:40 2,3 C 0,6 C 2,8 C 4,1 C 4,1 C 1,8 C 83 % 85 % 47 % 1024,6 hPa 0,0 l/m 2,9 km/h (1 Bft) O-NO 67 0 min -0,3 C 4,1 C 4,0 km/h (1 Bft)
11.02.2017 12:45 2,3 C 0,6 C 2,8 C 4,1 C 4,1 C 1,8 C 83 % 85 % 47 % 1024,6 hPa 0,0 l/m 2,1 km/h (1 Bft) O-NO 67 0 min -0,3 C 4,1 C 3,5 km/h (1 Bft)
11.02.2017 12:50 2,4 C 0,6 C 2,7 C 4,1 C 4,1 C 1,7 C 82 % 85 % 45 % 1024,6 hPa 0,0 l/m 1,8 km/h (1 Bft) O-NO 67 0 min -0,4 C 4,1 C 3,5 km/h (1 Bft)
11.02.2017 12:55 2,4 C 0,6 C 2,6 C 3,8 C 3,8 C 1,4 C 82 % 84 % 37 % 1024,6 hPa 0,0 l/m 3,1 km/h (1 Bft) O-SO 112 0 min -0,4 C 3,8 C 5,0 km/h (1 Bft)
11.02.2017 13:00 2,3 C 0,6 C 2,6 C 3,2 C 3,2 C 0,9 C 81 % 84 % 24 % 1024,6 hPa 0,0 l/m 3,9 km/h (1 Bft) O-NO 67 0 min -0,6 C 3,2 C 3,9 km/h (1 Bft)
11.02.2017 13:05 2,3 C 0,6 C 2,7 C 2,9 C 2,9 C 0,6 C 81 % 84 % 16 % 1024,6 hPa 0,0 l/m 4,3 km/h (1 Bft) O 90 0 min -0,6 C 2,9 C 4,8 km/h (1 Bft)
11.02.2017 13:10 2,4 C 0,6 C 2,7 C 2,9 C 2,9 C 0,5 C 81 % 84 % 13 % 1024,6 hPa 0,0 l/m 4,3 km/h (1 Bft) O-NO 67 0 min -0,5 C 2,9 C 7,4 km/h (2 Bft)
11.02.2017 13:15 2,4 C 0,6 C 2,7 C 2,5 C 2,5 C 0,1 C 81 % 84 % 3 % 1024,6 hPa 0,0 l/m 5,5 km/h (1 Bft) O-NO 67 0 min -0,5 C 1,0 C 6,1 km/h (2 Bft)
11.02.2017 13:20 2,4 C 0,6 C 2,7 C 2,4 C 2,3 C 0,0 C 81 % 84 % 0 % 1024,1 hPa 0,0 l/m 6,1 km/h (2 Bft) O-NO 67 0 min -0,5 C 0,6 C 5,8 km/h (2 Bft)
11.02.2017 13:25 2,4 C 0,6 C 2,8 C 2,4 C 2,3 C 0,0 C 81 % 84 % 0 % 1024,1 hPa 0,0 l/m 6,0 km/h (2 Bft) O-SO 112 0 min -0,5 C 0,6 C 9,3 km/h (2 Bft)
11.02.2017 13:30 2,5 C 0,6 C 2,8 C 2,4 C 2,3 C 0,0 C 80 % 84 % 0 % 1024,1 hPa 0,0 l/m 6,1 km/h (2 Bft) O-NO 67 0 min -0,6 C 0,6 C 6,9 km/h (2 Bft)
11.02.2017 13:35 2,5 C 0,6 C 2,8 C 2,4 C 2,3 C 0,0 C 80 % 84 % 0 % 1024,1 hPa 0,0 l/m 6,4 km/h (2 Bft) O-SO 112 0 min -0,6 C 0,5 C 6,1 km/h (2 Bft)
11.02.2017 13:40 2,4 C 0,6 C 2,8 C 2,4 C 2,3 C 0,0 C 80 % 84 % 0 % 1024,2 hPa 0,0 l/m 6,0 km/h (2 Bft) O-NO 67 0 min -0,7 C 0,6 C 5,8 km/h (2 Bft)
11.02.2017 13:45 2,4 C 0,6 C 2,8 C 2,6 C 2,6 C 0,2 C 80 % 84 % 5 % 1024,2 hPa 0,0 l/m 5,6 km/h (1 Bft) O-NO 67 0 min -0,7 C 1,1 C 8,0 km/h (2 Bft)
11.02.2017 13:50 2,4 C 0,6 C 2,8 C 2,5 C 2,5 C 0,1 C 80 % 83 % 3 % 1024,2 hPa 0,0 l/m 5,8 km/h (2 Bft) NO 45 0 min -0,7 C 0,9 C 5,3 km/h (1 Bft)
11.02.2017 13:55 2,5 C 0,6 C 2,8 C 2,4 C 2,3 C 0,0 C 80 % 83 % 0 % 1024,2 hPa 0,0 l/m 6,3 km/h (2 Bft) O-NO 67 0 min -0,6 C 0,5 C 6,1 km/h (2 Bft)
11.02.2017 14:00 2,5 C 0,6 C 2,8 C 2,5 C 2,4 C 0,0 C 80 % 83 % 0 % 1024,2 hPa 0,0 l/m 6,1 km/h (2 Bft) O-NO 67 0 min -0,6 C 0,7 C 10,8 km/h (2 Bft)
11.02.2017 14:05 2,5 C 0,6 C 2,8 C 2,5 C 2,4 C 0,0 C 80 % 83 % 0 % 1024,2 hPa 0,0 l/m 5,6 km/h (1 Bft) O-NO 67 0 min -0,6 C 0,9 C 6,9 km/h (2 Bft)
11.02.2017 14:11 2,5 C 0,6 C 2,9 C 2,5 C 2,5 C 0,0 C 80 % 83 % 0 % 1024,2 hPa 0,0 l/m 5,5 km/h (1 Bft) N 0 0 min -0,6 C 1,0 C 5,6 km/h (1 Bft)
11.02.2017 14:25 2,6 C 0,6 C 2,9 C 2,7 C 2,7 C 0,1 C 79 % 83 % 3 % 1024,0 hPa 0,0 l/m 5,0 km/h (1 Bft) O-NO 67 0 min -0,7 C 1,5 C 8,5 km/h (2 Bft)
11.02.2017 14:30 2,5 C 0,6 C 2,8 C 2,5 C 2,5 C 0,0 C 79 % 83 % 0 % 1024,0 hPa 0,0 l/m 5,5 km/h (1 Bft) O-NO 67 0 min -0,8 C 1,0 C 6,4 km/h (2 Bft)
11.02.2017 14:35 2,7 C 0,6 C 2,8 C 2,7 C 2,6 C 0,0 C 79 % 83 % 0 % 1024,0 hPa 0,0 l/m 5,3 km/h (1 Bft) O-NO 67 0 min -0,6 C 1,2 C 6,3 km/h (2 Bft)
11.02.2017 14:40 2,7 C 0,6 C 2,9 C 2,9 C 2,9 C 0,2 C 79 % 83 % 5 % 1024,2 hPa 0,0 l/m 4,7 km/h (1 Bft) O-NO 67 0 min -0,6 C 1,8 C 3,7 km/h (1 Bft)
11.02.2017 14:45 2,6 C 0,6 C 2,8 C 3,2 C 3,2 C 0,6 C 79 % 83 % 16 % 1024,2 hPa 0,0 l/m 4,3 km/h (1 Bft) O 90 0 min -0,7 C 3,2 C 3,9 km/h (1 Bft)
11.02.2017 14:50 2,6 C 0,6 C 2,8 C 3,4 C 3,4 C 0,8 C 79 % 83 % 21 % 1024,2 hPa 0,0 l/m 3,9 km/h (1 Bft) O-NO 67 0 min -0,7 C 3,4 C 4,5 km/h (1 Bft)
11.02.2017 14:55 2,7 C 0,6 C 2,8 C 3,4 C 3,4 C 0,7 C 78 % 82 % 18 % 1024,2 hPa 0,0 l/m 4,0 km/h (1 Bft) O-NO 67 0 min -0,7 C 3,4 C 4,7 km/h (1 Bft)
11.02.2017 15:00 2,7 C 0,6 C 2,8 C 2,9 C 2,9 C 0,2 C 78 % 82 % 5 % 1023,9 hPa 0,0 l/m 4,8 km/h (1 Bft) O-NO 67 0 min -0,7 C 1,8 C 5,1 km/h (1 Bft)
11.02.2017 15:05 2,6 C 0,6 C 2,7 C 2,6 C 2,5 C 0,0 C 78 % 82 % 0 % 1023,9 hPa 0,0 l/m 5,3 km/h (1 Bft) O-NO 67 0 min -0,8 C 1,1 C 5,1 km/h (1 Bft)
11.02.2017 15:10 2,7 C 0,6 C 2,7 C 2,7 C 2,6 C 0,0 C 78 % 82 % 0 % 1023,9 hPa 0,0 l/m 5,0 km/h (1 Bft) O-NO 67 0 min -0,7 C 1,4 C 7,7 km/h (2 Bft)
11.02.2017 15:15 2,7 C 0,6 C 2,7 C 2,5 C 2,2 C 0,0 C 78 % 82 % 0 % 1023,9 hPa 0,0 l/m 5,8 km/h (2 Bft) O 90 0 min -0,7 C 0,6 C 10,0 km/h (2 Bft)
11.02.2017 15:20 2,5 C 0,6 C 2,7 C 2,3 C 1,9 C 0,0 C 78 % 82 % 0 % 1023,9 hPa 0,0 l/m 6,4 km/h (2 Bft) O-NO 67 0 min -0,9 C 0,0 C 7,4 km/h (2 Bft)
11.02.2017 15:25 2,5 C 0,6 C 2,7 C 2,3 C 1,9 C 0,0 C 78 % 82 % 0 % 1023,9 hPa 0,0 l/m 6,4 km/h (2 Bft) O 90 0 min -0,9 C 0,0 C 6,9 km/h (2 Bft)
11.02.2017 15:30 2,5 C 0,6 C 2,5 C 2,3 C 1,8 C 0,0 C 78 % 82 % 0 % 1023,9 hPa 0,0 l/m 6,4 km/h (2 Bft) O-NO 67 0 min -0,9 C -0,1 C 8,9 km/h (2 Bft)
11.02.2017 15:35 2,4 C 0,6 C 2,4 C 2,2 C 1,8 C 0,0 C 78 % 82 % 0 % 1023,9 hPa 0,0 l/m 6,3 km/h (2 Bft) O 90 0 min -1,0 C -0,1 C 6,9 km/h (2 Bft)
11.02.2017 15:40 2,4 C 0,6 C 2,4 C 2,1 C 1,5 C 0,0 C 78 % 82 % 0 % 1023,9 hPa 0,0 l/m 6,6 km/h (2 Bft) O-NO 67 0 min -1,0 C -0,5 C 9,5 km/h (2 Bft)
11.02.2017 15:45 2,4 C 0,6 C 2,4 C 2,0 C 1,3 C 0,0 C 78 % 82 % 0 % 1023,9 hPa 0,0 l/m 6,6 km/h (2 Bft) O 90 0 min -1,0 C -0,8 C 8,0 km/h (2 Bft)
11.02.2017 15:50 2,3 C 0,7 C 2,3 C 1,9 C 1,1 C 0,0 C 78 % 82 % 0 % 1023,9 hPa 0,0 l/m 6,9 km/h (2 Bft) SW 225 0 min -1,1 C -1,1 C 7,1 km/h (2 Bft)
11.02.2017 15:55 2,3 C 0,7 C 2,2 C 1,9 C 1,0 C 0,0 C 78 % 82 % 0 % 1023,9 hPa 0,0 l/m 6,8 km/h (2 Bft) O-NO 67 0 min -1,1 C -1,2 C 6,3 km/h (2 Bft)
11.02.2017 16:00 2,2 C 0,7 C 2,1 C 1,8 C 0,9 C 0,0 C 78 % 83 % 0 % 1023,9 hPa 0,0 l/m 6,4 km/h (2 Bft) O-NO 67 0 min -1,2 C -1,1 C 9,3 km/h (2 Bft)
11.02.2017 16:05 2,3 C 0,7 C 2,0 C 1,8 C 0,8 C 0,0 C 79 % 83 % 0 % 1023,9 hPa 0,0 l/m 6,4 km/h (2 Bft) NO 45 0 min -1,0 C -1,3 C 8,5 km/h (2 Bft)
11.02.2017 16:11 2,3 C 0,7 C 2,0 C 1,7 C 0,6 C 0,0 C 79 % 83 % 0 % 1023,9 hPa 0,0 l/m 6,8 km/h (2 Bft) N 0 0 min -1,0 C -1,6 C 8,9 km/h (2 Bft)
11.02.2017 16:25 2,1 C 0,7 C 1,9 C 1,5 C 0,2 C 0,0 C 79 % 84 % 0 % 1024,2 hPa 0,0 l/m 7,6 km/h (2 Bft) O-NO 67 0 min -1,2 C -2,4 C 11,9 km/h (2 Bft)
11.02.2017 16:30 2,1 C 0,7 C 1,8 C 1,4 C 0,1 C 0,0 C 79 % 83 % 0 % 1024,2 hPa 0,0 l/m 7,4 km/h (2 Bft) O 90 0 min -1,2 C -2,4 C 6,4 km/h (2 Bft)
11.02.2017 16:35 2,0 C 0,7 C 1,7 C 1,5 C 0,4 C 0,0 C 79 % 83 % 0 % 1024,2 hPa 0,0 l/m 6,3 km/h (2 Bft) NO 45 0 min -1,2 C -1,7 C 8,0 km/h (2 Bft)
11.02.2017 16:40 2,0 C 0,7 C 1,6 C 1,6 C 0,7 C 0,0 C 79 % 83 % 0 % 1024,1 hPa 0,0 l/m 5,6 km/h (1 Bft) O-SO 112 0 min -1,2 C -1,1 C 6,4 km/h (2 Bft)
11.02.2017 16:45 2,0 C 0,7 C 1,6 C 1,5 C 0,6 C 0,0 C 79 % 84 % 0 % 1024,1 hPa 0,0 l/m 5,6 km/h (1 Bft) O 90 0 min -1,2 C -1,2 C 4,3 km/h (1 Bft)
11.02.2017 16:50 2,0 C 0,7 C 1,6 C 1,4 C 0,3 C 0,0 C 79 % 84 % 0 % 1024,1 hPa 0,0 l/m 5,8 km/h (2 Bft) O-NO 67 0 min -1,2 C -1,6 C 7,7 km/h (2 Bft)
11.02.2017 16:55 1,9 C 0,7 C 1,5 C 1,3 C 0,2 C 0,0 C 79 % 84 % 0 % 1024,1 hPa 0,0 l/m 6,3 km/h (2 Bft) O-NO 67 0 min -1,3 C -1,9 C 7,7 km/h (2 Bft)
11.02.2017 17:00 1,9 C 0,7 C 1,5 C 1,2 C -0,2 C 0,0 C 79 % 84 % 0 % 1024,1 hPa 0,0 l/m 6,9 km/h (2 Bft) O 90 0 min -1,3 C -2,6 C 7,1 km/h (2 Bft)
11.02.2017 17:05 1,9 C 0,7 C 1,5 C 1,2 C -0,3 C 0,0 C 79 % 84 % 0 % 1024,1 hPa 0,0 l/m 7,4 km/h (2 Bft) O-NO 67 0 min -1,3 C -2,9 C 12,6 km/h (3 Bft)
11.02.2017 17:10 1,9 C 0,7 C 1,5 C 1,1 C -0,4 C 0,0 C 79 % 84 % 0 % 1024,1 hPa 0,0 l/m 7,2 km/h (2 Bft) O 90 0 min -1,3 C -2,9 C 9,0 km/h (2 Bft)
11.02.2017 17:15 1,8 C 0,7 C 1,5 C 1,2 C -0,1 C 0,0 C 79 % 84 % 0 % 1024,1 hPa 0,0 l/m 6,6 km/h (2 Bft) O-NO 67 0 min -1,4 C -2,4 C 8,7 km/h (2 Bft)
11.02.2017 17:20 1,9 C 0,7 C 1,3 C 1,2 C -0,3 C 0,0 C 80 % 84 % 0 % 1024,7 hPa 0,0 l/m 6,8 km/h (2 Bft) O-NO 67 0 min -1,2 C -2,7 C 7,9 km/h (2 Bft)
11.02.2017 17:25 1,7 C 0,7 C 1,2 C 1,0 C -0,3 C 0,0 C 80 % 85 % 0 % 1024,7 hPa 0,0 l/m 6,6 km/h (2 Bft) O-NO 67 0 min -1,4 C -2,6 C 10,6 km/h (2 Bft)
11.02.2017 17:30 1,7 C 0,7 C 1,2 C 1,0 C -0,5 C 0,0 C 80 % 85 % 0 % 1024,7 hPa 0,0 l/m 7,2 km/h (2 Bft) O-NO 67 0 min -1,4 C -3,1 C 10,6 km/h (2 Bft)
11.02.2017 17:35 1,7 C 0,7 C 1,2 C 1,2 C -0,8 C 0,0 C 80 % 85 % 0 % 1024,7 hPa 0,0 l/m 8,4 km/h (2 Bft) O 90 0 min -1,4 C -3,8 C 13,0 km/h (3 Bft)
11.02.2017 17:40 1,7 C 0,7 C 1,2 C 0,9 C -0,7 C 0,0 C 80 % 85 % 0 % 1024,7 hPa 0,0 l/m 7,6 km/h (2 Bft) O-NO 67 0 min -1,4 C -3,4 C 10,9 km/h (2 Bft)
11.02.2017 17:45 1,6 C 0,7 C 1,1 C 0,9 C -0,5 C 0,0 C 80 % 85 % 0 % 1024,7 hPa 0,0 l/m 6,9 km/h (2 Bft) O-NO 67 0 min -1,5 C -2,9 C 6,9 km/h (2 Bft)
11.02.2017 17:50 1,6 C 0,7 C 1,1 C 0,9 C -0,6 C 0,0 C 80 % 85 % 0 % 1024,7 hPa 0,0 l/m 7,2 km/h (2 Bft) O-NO 67 0 min -1,5 C -3,2 C 10,6 km/h (2 Bft)
11.02.2017 17:55 1,6 C 0,7 C 1,1 C 0,8 C -0,7 C 0,0 C 80 % 85 % 0 % 1024,7 hPa 0,0 l/m 7,4 km/h (2 Bft) O-NO 67 0 min -1,5 C -3,4 C 10,3 km/h (2 Bft)
11.02.2017 18:00 1,7 C 0,7 C 1,1 C 0,9 C -0,8 C 0,0 C 80 % 85 % 0 % 1024,8 hPa 0,0 l/m 7,4 km/h (2 Bft) O-SO 112 0 min -1,4 C -3,5 C 10,0 km/h (2 Bft)
11.02.2017 18:05 1,6 C 0,7 C 1,1 C 0,8 C -0,8 C 0,0 C 81 % 85 % 0 % 1024,8 hPa 0,0 l/m 7,2 km/h (2 Bft) O-NO 67 0 min -1,3 C -3,4 C 6,4 km/h (2 Bft)
11.02.2017 18:11 1,6 C 0,7 C 1,1 C 1,0 C -1,0 C 0,0 C 81 % 85 % 0 % 1024,8 hPa 0,0 l/m 8,0 km/h (2 Bft) N 0 0 min -1,3 C -3,9 C 11,3 km/h (2 Bft)
11.02.2017 18:25 1,4 C 0,7 C 0,9 C 0,8 C -1,4 C 0,0 C 81 % 86 % 0 % 1024,8 hPa 0,0 l/m 8,5 km/h (2 Bft) O-NO 67 0 min -1,5 C -4,5 C 9,2 km/h (2 Bft)
11.02.2017 18:30 1,5 C 0,7 C 0,9 C 0,5 C -1,4 C 0,0 C 81 % 86 % 0 % 1024,8 hPa 0,0 l/m 8,5 km/h (2 Bft) O-NO 67 0 min -1,4 C -4,5 C 9,0 km/h (2 Bft)
11.02.2017 18:35 1,5 C 0,7 C 0,9 C 0,5 C -1,4 C 0,0 C 81 % 86 % 0 % 1024,8 hPa 0,0 l/m 8,7 km/h (2 Bft) O-NO 67 0 min -1,4 C -4,6 C 11,7 km/h (2 Bft)
11.02.2017 18:40 1,5 C 0,7 C 0,9 C 0,8 C -1,5 C 0,0 C 81 % 86 % 0 % 1024,8 hPa 0,0 l/m 9,0 km/h (2 Bft) O-NO 67 0 min -1,4 C -4,8 C 13,4 km/h (3 Bft)
11.02.2017 18:45 1,5 C 0,7 C 0,9 C 0,8 C -1,4 C 0,0 C 81 % 86 % 0 % 1024,8 hPa 0,0 l/m 8,7 km/h (2 Bft) O 90 0 min -1,4 C -4,6 C 5,3 km/h (1 Bft)
11.02.2017 18:50 1,3 C 0,7 C 0,8 C 0,7 C -1,2 C 0,0 C 81 % 86 % 0 % 1024,8 hPa 0,0 l/m 7,7 km/h (2 Bft) O-NO 67 0 min -1,6 C -4,0 C 6,4 km/h (2 Bft)
11.02.2017 18:55 1,3 C 0,7 C 0,8 C 0,7 C -0,6 C 0,0 C 81 % 86 % 0 % 1024,8 hPa 0,0 l/m 6,1 km/h (2 Bft) O-NO 67 0 min -1,6 C -2,8 C 5,3 km/h (1 Bft)
11.02.2017 19:00 1,3 C 0,7 C 0,8 C 0,6 C -0,8 C 0,0 C 81 % 86 % 0 % 1024,8 hPa 0,0 l/m 6,4 km/h (2 Bft) O-NO 67 0 min -1,6 C -3,1 C 6,8 km/h (2 Bft)
11.02.2017 19:05 1,3 C 0,7 C 0,8 C 0,5 C -1,1 C 0,0 C 81 % 86 % 0 % 1024,8 hPa 0,0 l/m 7,6 km/h (2 Bft) O-NO 67 0 min -1,6 C -3,9 C 11,6 km/h (2 Bft)
11.02.2017 19:10 1,3 C 0,7 C 0,9 C 0,7 C -1,3 C 0,0 C 81 % 86 % 0 % 1024,8 hPa 0,0 l/m 8,4 km/h (2 Bft) O-NO 67 0 min -1,6 C -4,4 C 12,4 km/h (3 Bft)
11.02.2017 19:15 1,2 C 0,7 C 0,8 C 0,6 C -1,4 C 0,0 C 81 % 86 % 0 % 1024,8 hPa 0,0 l/m 8,4 km/h (2 Bft) O-NO 67 0 min -1,7 C -4,5 C 7,9 km/h (2 Bft)
11.02.2017 19:20 1,2 C 0,7 C 0,8 C 0,4 C -1,2 C 0,0 C 81 % 86 % 0 % 1024,8 hPa 0,0 l/m 7,4 km/h (2 Bft) O-NO 67 0 min -1,7 C -3,9 C 8,5 km/h (2 Bft)
11.02.2017 19:25 1,2 C 0,7 C 0,8 C 0,4 C -1,2 C 0,0 C 82 % 86 % 0 % 1024,8 hPa 0,0 l/m 7,4 km/h (2 Bft) O-NO 67 0 min -1,5 C -3,9 C 11,4 km/h (2 Bft)
11.02.2017 19:30 1,2 C 0,7 C 0,7 C 0,6 C -1,4 C 0,0 C 82 % 86 % 0 % 1024,8 hPa 0,0 l/m 8,2 km/h (2 Bft) O 90 0 min -1,5 C -4,4 C 7,9 km/h (2 Bft)
11.02.2017 19:35 1,2 C 0,7 C 0,8 C 0,6 C -1,3 C 0,0 C 81 % 86 % 0 % 1024,8 hPa 0,0 l/m 7,9 km/h (2 Bft) O-SO 112 0 min -1,7 C -4,2 C 9,5 km/h (2 Bft)
11.02.2017 19:40 1,2 C 0,7 C 0,8 C 0,4 C -1,1 C 0,0 C 82 % 86 % 0 % 1025,2 hPa 0,0 l/m 7,2 km/h (2 Bft) NO 45 0 min -1,5 C -3,8 C 5,5 km/h (1 Bft)
11.02.2017 19:45 1,3 C 0,7 C 0,7 C 0,6 C -0,7 C 0,0 C 82 % 86 % 0 % 1025,2 hPa 0,0 l/m 6,1 km/h (2 Bft) O-NO 67 0 min -1,4 C -2,9 C 7,6 km/h (2 Bft)
11.02.2017 19:50 1,3 C 0,7 C 0,7 C 0,7 C -0,6 C 0,0 C 82 % 86 % 0 % 1025,2 hPa 0,0 l/m 5,5 km/h (1 Bft) O 90 0 min -1,4 C -2,5 C 6,3 km/h (2 Bft)
11.02.2017 19:55 1,2 C 0,7 C 0,7 C 0,6 C -0,6 C 0,0 C 82 % 86 % 0 % 1025,2 hPa 0,0 l/m 5,5 km/h (1 Bft) O-NO 67 0 min -1,5 C -2,5 C 9,2 km/h (2 Bft)
11.02.2017 20:00 1,2 C 0,7 C 0,7 C 0,5 C -0,9 C 0,0 C 82 % 86 % 0 % 1025,2 hPa 0,0 l/m 6,4 km/h (2 Bft) O-NO 67 0 min -1,5 C -3,2 C 6,1 km/h (2 Bft)
11.02.2017 20:05 1,2 C 0,7 C 0,7 C 0,4 C -1,3 C 0,0 C 82 % 86 % 0 % 1025,2 hPa 0,0 l/m 7,4 km/h (2 Bft) O 90 0 min -1,5 C -4,1 C 4,0 km/h (1 Bft)
11.02.2017 20:11 1,1 C 0,7 C 0,7 C 0,4 C -0,9 C 0,0 C 82 % 86 % 0 % 1025,2 hPa 0,0 l/m 6,3 km/h (2 Bft) N 0 0 min -1,6 C -3,2 C 8,9 km/h (2 Bft)
11.02.2017 20:25 1,2 C 0,7 C 0,7 C 0,5 C -0,8 C 0,0 C 82 % 86 % 0 % 1025,6 hPa 0,0 l/m 6,1 km/h (2 Bft) O 90 0 min -1,5 C -3,0 C 13,8 km/h (3 Bft)
11.02.2017 20:30 1,2 C 0,7 C 0,7 C 0,8 C -0,1 C 0,0 C 82 % 86 % 0 % 1025,6 hPa 0,0 l/m 4,5 km/h (1 Bft) O 90 0 min -1,5 C -0,1 C 2,6 km/h (1 Bft)
11.02.2017 20:35 1,2 C 0,7 C 0,7 C 0,9 C 0,4 C 0,0 C 82 % 86 % 0 % 1025,6 hPa 0,0 l/m 3,5 km/h (1 Bft) O-SO 112 0 min -1,5 C 0,4 C 1,8 km/h (1 Bft)
11.02.2017 20:40 1,2 C 0,7 C 0,6 C 1,1 C 0,8 C 0,0 C 82 % 86 % 0 % 1025,6 hPa 0,0 l/m 2,7 km/h (1 Bft) NO 45 0 min -1,5 C 0,8 C 3,9 km/h (1 Bft)
11.02.2017 20:45 1,2 C 0,7 C 0,6 C 0,9 C 0,4 C 0,0 C 82 % 86 % 0 % 1025,6 hPa 0,0 l/m 3,5 km/h (1 Bft) O 90 0 min -1,5 C 0,4 C 6,1 km/h (2 Bft)
11.02.2017 20:50 1,2 C 0,7 C 0,7 C 0,8 C 0,1 C 0,0 C 82 % 86 % 0 % 1025,6 hPa 0,0 l/m 4,2 km/h (1 Bft) O-SO 112 0 min -1,5 C 0,1 C 4,0 km/h (1 Bft)
11.02.2017 20:55 1,2 C 0,7 C 0,7 C 0,8 C 0,1 C 0,0 C 82 % 86 % 0 % 1025,6 hPa 0,0 l/m 4,3 km/h (1 Bft) O-NO 67 0 min -1,5 C 0,1 C 5,1 km/h (1 Bft)
11.02.2017 21:00 1,2 C 0,7 C 0,7 C 1,0 C 0,6 C 0,0 C 82 % 86 % 0 % 1025,6 hPa 0,0 l/m 3,5 km/h (1 Bft) O 90 0 min -1,5 C 0,6 C 2,7 km/h (1 Bft)
11.02.2017 21:05 1,2 C 0,7 C 0,7 C 1,1 C 0,8 C 0,0 C 82 % 86 % 0 % 1025,6 hPa 0,0 l/m 3,1 km/h (1 Bft) O-NO 67 0 min -1,5 C 0,8 C 2,3 km/h (1 Bft)
11.02.2017 21:10 1,3 C 0,7 C 0,7 C 1,1 C 0,7 C 0,0 C 82 % 86 % 0 % 1025,6 hPa 0,0 l/m 3,1 km/h (1 Bft) O 90 0 min -1,4 C 0,7 C 5,3 km/h (1 Bft)
11.02.2017 21:15 1,3 C 0,7 C 0,6 C 1,1 C 0,6 C 0,0 C 82 % 86 % 0 % 1025,6 hPa 0,0 l/m 3,2 km/h (1 Bft) O-NO 67 0 min -1,4 C 0,6 C 4,0 km/h (1 Bft)
11.02.2017 21:20 1,3 C 0,7 C 0,7 C 1,1 C 0,6 C 0,0 C 82 % 87 % 0 % 1025,6 hPa 0,0 l/m 3,2 km/h (1 Bft) W-NW 292 0 min -1,4 C 0,6 C 3,2 km/h (1 Bft)
11.02.2017 21:25 1,2 C 0,7 C 0,6 C 1,0 C 0,6 C 0,0 C 82 % 87 % 0 % 1025,6 hPa 0,0 l/m 3,4 km/h (1 Bft) O-NO 67 0 min -1,5 C 0,6 C 3,2 km/h (1 Bft)
11.02.2017 21:30 1,2 C 0,7 C 0,7 C 1,0 C 0,7 C 0,0 C 82 % 87 % 0 % 1025,6 hPa 0,0 l/m 3,1 km/h (1 Bft) O-NO 67 0 min -1,5 C 0,7 C 3,1 km/h (1 Bft)
11.02.2017 21:35 1,3 C 0,7 C 0,7 C 0,9 C 0,2 C 0,0 C 82 % 87 % 0 % 1025,6 hPa 0,0 l/m 3,9 km/h (1 Bft) O-SO 112 0 min -1,4 C 0,2 C 6,9 km/h (2 Bft)
11.02.2017 21:40 1,2 C 0,7 C 0,7 C 0,7 C -0,3 C 0,0 C 82 % 86 % 0 % 1025,6 hPa 0,0 l/m 5,3 km/h (1 Bft) O-NO 67 0 min -1,5 C -2,1 C 10,3 km/h (2 Bft)
11.02.2017 21:45 1,2 C 0,7 C 0,7 C 0,7 C -0,3 C 0,0 C 81 % 86 % 0 % 1025,6 hPa 0,0 l/m 5,1 km/h (1 Bft) O-NO 67 0 min -1,7 C -2,0 C 5,0 km/h (1 Bft)
11.02.2017 21:50 1,2 C 0,7 C 0,7 C 0,8 C 0,0 C 0,0 C 81 % 86 % 0 % 1025,6 hPa 0,0 l/m 4,5 km/h (1 Bft) O-NO 67 0 min -1,7 C 0,0 C 7,7 km/h (2 Bft)
11.02.2017 21:55 1,2 C 0,7 C 0,7 C 0,8 C -0,1 C 0,0 C 81 % 86 % 0 % 1025,6 hPa 0,0 l/m 4,8 km/h (1 Bft) O-NO 67 0 min -1,7 C -1,6 C 5,8 km/h (2 Bft)
11.02.2017 22:00 1,2 C 0,7 C 0,7 C 0,8 C 0,1 C 0,0 C 81 % 86 % 0 % 1025,6 hPa 0,0 l/m 4,3 km/h (1 Bft) O-NO 67 0 min -1,7 C 0,1 C 2,6 km/h (1 Bft)
11.02.2017 22:05 1,2 C 0,7 C 0,6 C 1,0 C 0,6 C 0,0 C 82 % 86 % 0 % 1025,6 hPa 0,0 l/m 3,2 km/h (1 Bft) NO 45 0 min -1,5 C 0,6 C 5,5 km/h (1 Bft)
11.02.2017 22:11 1,3 C 0,7 C 0,6 C 1,1 C 0,8 C 0,0 C 82 % 86 % 0 % 1025,6 hPa 0,0 l/m 2,9 km/h (1 Bft) N 0 0 min -1,4 C 0,8 C 1,9 km/h (1 Bft)
11.02.2017 22:26 1,2 C 0,7 C 0,6 C 1,0 C 0,6 C 0,0 C 82 % 86 % 0 % 1025,6 hPa 0,0 l/m 3,4 km/h (1 Bft) O-NO 67 0 min -1,5 C 0,6 C 5,1 km/h (1 Bft)
11.02.2017 22:27 1,2 C 0,7 C 0,6 C 1,0 C 0,6 C 0,0 C 82 % 86 % 0 % 1025,6 hPa 0,0 l/m 3,4 km/h (1 Bft) O-NO 67 0 min -1,5 C 0,6 C 5,1 km/h (1 Bft)
11.02.2017 22:30 1,2 C 0,7 C 0,7 C 1,0 C 0,6 C 0,0 C 81 % 86 % 0 % 1025,6 hPa 0,0 l/m 3,2 km/h (1 Bft) O-NO 67 0 min -1,7 C 0,6 C 1,8 km/h (1 Bft)
11.02.2017 22:35 1,2 C 0,7 C 0,6 C 1,0 C 0,7 C 0,0 C 81 % 86 % 0 % 1025,6 hPa 0,0 l/m 3,1 km/h (1 Bft) O-NO 67 0 min -1,7 C 0,7 C 2,9 km/h (1 Bft)
11.02.2017 22:40 1,2 C 0,7 C 0,7 C 1,2 C 1,1 C 0,0 C 81 % 86 % 0 % 1025,6 hPa 0,0 l/m 2,6 km/h (1 Bft) O-NO 67 0 min -1,7 C 1,1 C 3,7 km/h (1 Bft)
11.02.2017 22:45 1,2 C 0,7 C 0,7 C 1,0 C 0,6 C 0,0 C 81 % 87 % 0 % 1025,6 hPa 0,0 l/m 3,2 km/h (1 Bft) O 90 0 min -1,7 C 0,6 C 3,4 km/h (1 Bft)
11.02.2017 22:50 1,2 C 0,7 C 0,6 C 1,0 C 0,6 C 0,0 C 81 % 87 % 0 % 1025,6 hPa 0,0 l/m 3,4 km/h (1 Bft) O-NO 67 0 min -1,7 C 0,6 C 4,0 km/h (1 Bft)
11.02.2017 22:55 1,2 C 0,7 C 0,7 C 1,0 C 0,6 C 0,0 C 82 % 87 % 0 % 1025,6 hPa 0,0 l/m 3,2 km/h (1 Bft) O-NO 67 0 min -1,5 C 0,6 C 4,8 km/h (1 Bft)
11.02.2017 23:00 1,2 C 0,7 C 0,7 C 0,9 C 0,2 C 0,0 C 81 % 87 % 0 % 1026,7 hPa 0,0 l/m 3,9 km/h (1 Bft) O-NO 67 0 min -1,7 C 0,2 C 5,6 km/h (1 Bft)
11.02.2017 23:05 1,2 C 0,7 C 0,7 C 0,9 C 0,2 C 0,0 C 81 % 87 % 0 % 1026,7 hPa 0,0 l/m 4,0 km/h (1 Bft) O-NO 67 0 min -1,7 C 0,2 C 3,1 km/h (1 Bft)
11.02.2017 23:10 1,2 C 0,7 C 0,7 C 0,9 C 0,4 C 0,0 C 81 % 87 % 0 % 1026,7 hPa 0,0 l/m 3,9 km/h (1 Bft) O-NO 67 0 min -1,7 C 0,4 C 3,4 km/h (1 Bft)
11.02.2017 23:15 1,2 C 0,7 C 0,7 C 0,9 C 0,2 C 0,0 C 81 % 87 % 0 % 1026,7 hPa 0,0 l/m 3,9 km/h (1 Bft) O-NO 67 0 min -1,7 C 0,2 C 3,9 km/h (1 Bft)
11.02.2017 23:20 1,3 C 0,7 C 0,7 C 1,0 C 0,3 C 0,0 C 82 % 87 % 0 % 1026,7 hPa 0,0 l/m 3,7 km/h (1 Bft) NO 45 0 min -1,4 C 0,3 C 4,2 km/h (1 Bft)
11.02.2017 23:25 1,3 C 0,7 C 0,6 C 1,1 C 0,8 C 0,0 C 82 % 87 % 0 % 1026,7 hPa 0,0 l/m 2,9 km/h (1 Bft) NO 45 0 min -1,4 C 0,8 C 2,3 km/h (1 Bft)
11.02.2017 23:30 1,3 C 0,7 C 0,6 C 1,2 C 0,9 C 0,0 C 82 % 87 % 0 % 1026,7 hPa 0,0 l/m 2,7 km/h (1 Bft) O-NO 67 0 min -1,4 C 0,9 C 2,4 km/h (1 Bft)
11.02.2017 23:35 1,2 C 0,7 C 0,5 C 1,1 C 1,0 C 0,0 C 82 % 87 % 0 % 1026,7 hPa 0,0 l/m 1,9 km/h (1 Bft) O-NO 67 0 min -1,5 C 1,0 C 1,6 km/h (1 Bft)
11.02.2017 23:40 1,2 C 0,7 C 0,5 C 1,1 C 1,0 C 0,0 C 82 % 87 % 0 % 1026,4 hPa 0,0 l/m 1,9 km/h (1 Bft) NO 45 0 min -1,5 C 1,0 C 3,7 km/h (1 Bft)
11.02.2017 23:45 1,2 C 0,7 C 0,5 C 1,1 C 0,9 C 0,0 C 82 % 87 % 0 % 1026,4 hPa 0,0 l/m 2,6 km/h (1 Bft) O-NO 67 0 min -1,5 C 0,9 C 3,2 km/h (1 Bft)
11.02.2017 23:50 1,1 C 0,7 C 0,5 C 0,9 C 0,6 C 0,0 C 82 % 87 % 0 % 1026,4 hPa 0,0 l/m 3,1 km/h (1 Bft) O-NO 67 0 min -1,6 C 0,6 C 3,2 km/h (1 Bft)
11.02.2017 23:55 1,1 C 0,7 C 0,6 C 1,0 C 0,7 C 0,0 C 82 % 87 % 0 % 1026,4 hPa 0,0 l/m 2,9 km/h (1 Bft) O-NO 67 0 min -1,6 C 0,7 C 4,7 km/h (1 Bft)
_ Min-Zeit 04:45 12:35 04:45 04:45 04:30 00:00 14:55 14:55 00:00 06:24 - 01:15 - - - 04:45 18:40 01:05
Minimum _ -1,7 C 0,6 C -2,6 C -1,9 C -2,3 C 0,0 C 78 % 82 % 0 % 1023,3 hPa - 0,0 km/h (0 Bft) - - - -4,0 C -4,8 C 0,0 km/h (0 Bft)
_ Max-Zeit 14:35 08:35 12:24 11:30 11:30 11:30 10:24 05:05 11:30 23:00 00:00 18:40 - - 11:10 12:24 11:30 20:25
Maximum _ 2,7 C 1,2 C 3,0 C 4,9 C 4,9 C 3,8 C 87 % 90 % 100 % 1026,7 hPa 0,0 l/m 9,0 km/h
O-NO (2 Bft)
- - 5 min -0,3 C 4,9 C 13,8 km/h
O (3 Bft)
Durchschnitt _ 0,7 C 0,8 C 0,6 C 0,9 C 0,4 C 0,4 C 82 % 87 % 10 % 1024,6 hPa #0,0 l/m 3,3 km/h (1 Bft) O-NO - #25 min. -2,0 C -0,3 C 4,1 km/h (1 Bft)
2017 www.wetterstation-wechselburg.de